createdAt,value
2024-03-12T00:02:49.624Z,58.30
2024-03-12T00:15:20.011Z,57.20
2024-03-12T00:21:46.818Z,47.20
2024-03-12T00:28:11.401Z,47.60
2024-03-12T00:34:36.958Z,48.10
2024-03-12T00:40:46.523Z,73.40
2024-03-12T00:46:14.913Z,122.80
2024-03-12T00:51:31.541Z,68.30
2024-03-12T00:56:41.934Z,85.10
2024-03-12T01:02:59.695Z,70.90
2024-03-12T01:08:48.106Z,53.30
2024-03-12T01:14:39.266Z,57.30
2024-03-12T01:20:46.065Z,48.30
2024-03-12T01:26:25.993Z,55.10
2024-03-12T01:32:52.116Z,54.00
2024-03-12T01:39:05.222Z,53.40
2024-03-12T01:44:59.231Z,49.80
2024-03-12T01:51:05.574Z,51.60
2024-03-12T01:57:30.086Z,51.80
2024-03-12T02:03:55.260Z,48.30
2024-03-12T02:10:21.066Z,51.40
2024-03-12T02:15:59.649Z,47.70
2024-03-12T02:22:14.008Z,54.30
2024-03-12T02:27:52.745Z,56.30
2024-03-12T02:34:15.172Z,53.30
2024-03-12T02:40:17.258Z,52.40
2024-03-12T02:46:22.410Z,60.80
2024-03-12T02:52:39.590Z,62.40
2024-03-12T02:58:18.788Z,59.40
2024-03-12T03:04:16.192Z,59.30
2024-03-12T03:10:33.879Z,60.30
2024-03-12T03:16:39.735Z,62.40
2024-03-12T03:22:49.741Z,66.50
2024-03-12T03:28:57.935Z,65.50
2024-03-12T03:35:23.692Z,63.40
2024-03-12T03:41:48.713Z,67.90
2024-03-12T03:47:39.095Z,71.50
2024-03-12T03:53:45.044Z,69.60
2024-03-12T03:59:32.523Z,61.40
2024-03-12T04:05:16.146Z,65.10
2024-03-12T04:10:49.774Z,67.90
2024-03-12T04:16:58.809Z,68.20
2024-03-12T04:22:23.189Z,67.20
2024-03-12T04:27:38.326Z,67.40
2024-03-12T04:33:54.175Z,72.90
2024-03-12T04:39:44.168Z,69.30
2024-03-12T04:46:09.335Z,61.80
2024-03-12T04:52:35.235Z,75.30
2024-03-12T04:58:41.466Z,77.70
2024-03-12T05:04:46.842Z,79.90
2024-03-12T05:10:52.421Z,77.60
2024-03-12T05:17:18.733Z,92.30
2024-03-12T05:23:16.097Z,83.70
2024-03-12T05:29:34.504Z,91.50
2024-03-12T05:35:00.438Z,100.20
2024-03-12T05:40:54.104Z,91.80
2024-03-12T05:47:11.440Z,108.80
2024-03-12T05:53:06.412Z,114.60
2024-03-12T05:59:31.629Z,100.50
2024-03-12T06:05:29.904Z,100.80
2024-03-12T06:11:32.833Z,110.70
2024-03-12T06:17:58.642Z,102.10
2024-03-12T06:23:27.276Z,116.50
2024-03-12T06:29:53.044Z,106.00
2024-03-12T06:35:38.722Z,113.70
2024-03-12T06:40:49.807Z,113.30
2024-03-12T06:45:57.730Z,105.80
2024-03-12T06:52:11.496Z,106.70
2024-03-12T06:58:01.067Z,100.60
2024-03-12T07:03:30.596Z,86.80
2024-03-12T07:09:17.317Z,90.50
2024-03-12T07:15:04.616Z,92.40
2024-03-12T07:21:22.164Z,94.20
2024-03-12T07:27:32.998Z,95.40
2024-03-12T07:33:36.451Z,100.90
2024-03-12T07:40:02.914Z,99.70
2024-03-12T07:46:28.493Z,103.30
2024-03-12T07:52:17.971Z,99.30
2024-03-12T07:58:04.379Z,95.50
2024-03-12T08:04:13.166Z,93.60
2024-03-12T08:09:43.742Z,98.80
2024-03-12T08:15:08.144Z,92.30
2024-03-12T08:20:22.800Z,91.60
2024-03-12T08:26:36.820Z,97.70
2024-03-12T08:33:02.559Z,92.80
2024-03-12T08:39:28.767Z,94.90
2024-03-12T08:45:00.188Z,84.20
2024-03-12T08:50:17.281Z,79.20
2024-03-12T08:55:30.999Z,80.40
2024-03-12T09:00:48.564Z,74.20
2024-03-12T09:06:19.463Z,85.30
2024-03-12T09:12:08.534Z,88.90
2024-03-12T09:17:57.462Z,84.80
2024-03-12T09:24:02.891Z,90.60
2024-03-12T09:29:19.316Z,75.10
2024-03-12T09:34:26.927Z,77.70
2024-03-12T09:39:44.665Z,79.10
2024-03-12T09:44:59.217Z,87.40
2024-03-12T09:50:59.106Z,83.60
2024-03-12T09:56:39.953Z,77.60
2024-03-12T10:02:37.338Z,78.30
2024-03-12T10:09:08.757Z,78.70
2024-03-12T10:15:35.131Z,84.60
2024-03-12T10:21:59.700Z,77.40
2024-03-12T10:27:44.313Z,86.50
2024-03-12T10:34:11.104Z,87.10
2024-03-12T10:40:37.052Z,95.80
2024-03-12T10:45:57.671Z,86.90
2024-03-12T10:51:14.883Z,90.90
2024-03-12T10:56:34.086Z,84.90
2024-03-12T11:01:54.377Z,95.00
2024-03-12T11:07:04.626Z,99.00
2024-03-12T11:12:26.316Z,84.40
2024-03-12T11:18:13.970Z,79.90
2024-03-12T11:24:20.887Z,71.80
2024-03-12T11:30:52.981Z,78.90
2024-03-12T11:36:51.136Z,83.10
2024-03-12T11:42:44.367Z,75.10
2024-03-12T11:48:23.461Z,67.40
2024-03-12T11:54:32.526Z,77.70
2024-03-12T12:00:57.677Z,70.90
2024-03-12T12:07:18.242Z,69.20
2024-03-12T12:13:33.664Z,56.20
2024-03-12T12:19:45.475Z,68.40
2024-03-12T12:26:11.609Z,72.80
2024-03-12T12:31:59.652Z,72.40
2024-03-12T12:37:22.111Z,76.00
2024-03-12T12:42:51.434Z,81.00
2024-03-12T12:48:25.922Z,69.90
2024-03-12T12:54:43.881Z,73.30
2024-03-12T13:00:51.509Z,71.00
2024-03-12T13:07:05.773Z,67.10
2024-03-12T13:13:32.277Z,72.00
2024-03-12T13:19:03.143Z,70.60
2024-03-12T13:24:33.811Z,73.40
2024-03-12T13:30:30.492Z,61.90
2024-03-12T13:35:45.090Z,65.50
2024-03-12T13:41:10.725Z,68.20
2024-03-12T13:46:31.008Z,63.70
2024-03-12T13:52:56.764Z,66.60
2024-03-12T13:58:27.735Z,62.40
2024-03-12T14:03:56.636Z,62.50
2024-03-12T14:09:39.331Z,62.00
2024-03-12T14:15:56.772Z,61.20
2024-03-12T14:22:02.208Z,62.30
2024-03-12T14:27:37.907Z,59.00
2024-03-12T14:33:45.888Z,60.00
2024-03-12T14:39:17.676Z,58.20
2024-03-12T14:44:48.735Z,61.80
2024-03-12T14:50:21.045Z,65.10
2024-03-12T14:55:48.209Z,63.10
2024-03-12T15:01:30.656Z,64.20
2024-03-12T15:07:04.887Z,63.80
2024-03-12T15:12:12.434Z,65.50
2024-03-12T15:17:42.078Z,63.10
2024-03-12T15:23:07.255Z,63.00
2024-03-12T15:28:34.340Z,60.60
2024-03-12T15:33:45.513Z,61.10
2024-03-12T15:39:52.467Z,64.20
2024-03-12T15:45:22.470Z,64.60
2024-03-12T15:50:46.031Z,75.70
2024-03-12T15:56:34.473Z,65.00
2024-03-12T16:01:57.683Z,66.20
2024-03-12T16:08:07.438Z,70.10
2024-03-12T16:14:21.798Z,73.30
2024-03-12T16:20:15.417Z,72.50
2024-03-12T16:26:35.176Z,85.70
2024-03-12T16:32:44.786Z,60.90
2024-03-12T16:38:25.771Z,72.20
2024-03-12T16:43:59.774Z,70.20
2024-03-12T16:50:07.625Z,66.80
2024-03-12T16:55:52.430Z,69.30
2024-03-12T17:01:40.038Z,75.70
2024-03-12T17:07:34.027Z,74.70
2024-03-12T17:13:32.756Z,86.50
2024-03-12T17:18:59.690Z,80.90
2024-03-12T17:24:45.071Z,70.70
2024-03-12T17:30:18.407Z,70.10
2024-03-12T17:35:54.706Z,78.40
2024-03-12T17:41:28.845Z,76.80
2024-03-12T17:47:16.389Z,78.00
2024-03-12T17:53:16.927Z,79.90
2024-03-12T17:59:02.254Z,80.00
2024-03-12T18:05:17.860Z,88.40
2024-03-12T18:11:17.181Z,165.10
2024-03-12T18:16:45.889Z,239.10
2024-03-12T18:22:24.756Z,159.10
2024-03-12T18:27:57.450Z,109.70
2024-03-12T18:34:05.606Z,100.20
2024-03-12T18:40:19.005Z,104.50
2024-03-12T18:45:54.214Z,120.30
2024-03-12T18:51:52.993Z,112.00
2024-03-12T18:57:52.390Z,100.40
2024-03-12T19:14:38.123Z,81.70
2024-03-12T19:20:44.857Z,91.90
2024-03-12T19:27:17.182Z,75.70
2024-03-12T19:32:47.628Z,91.40
2024-03-12T19:38:16.984Z,96.00
2024-03-12T19:43:51.602Z,96.90
2024-03-12T19:49:21.504Z,92.20
2024-03-12T19:54:59.163Z,89.10
2024-03-12T20:00:54.414Z,98.20
2024-03-12T20:06:06.920Z,93.60
2024-03-12T20:11:34.456Z,97.20
2024-03-12T20:17:01.837Z,98.10
2024-03-12T20:22:12.469Z,102.30
2024-03-12T20:27:22.702Z,91.10
2024-03-12T20:33:00.417Z,86.50
2024-03-12T20:38:31.114Z,90.50
2024-03-12T20:43:37.403Z,103.00
2024-03-12T20:49:04.612Z,105.90
2024-03-12T20:54:10.429Z,144.40
2024-03-12T21:00:08.595Z,131.70
2024-03-12T21:05:24.431Z,109.80
2024-03-12T21:10:45.488Z,123.70
2024-03-12T21:16:32.165Z,121.00
2024-03-12T21:21:37.104Z,120.90
2024-03-12T21:27:46.217Z,111.00
2024-03-12T21:33:48.615Z,124.50
2024-03-12T21:39:55.906Z,130.30
2024-03-12T21:45:35.551Z,100.20
2024-03-12T21:51:16.902Z,123.00
2024-03-12T21:56:42.328Z,147.20
2024-03-12T22:02:52.585Z,174.20
2024-03-12T22:09:08.357Z,159.20
2024-03-12T22:14:56.813Z,176.00
2024-03-12T22:21:05.288Z,184.20
2024-03-12T22:27:30.014Z,176.70
2024-03-12T22:32:45.522Z,160.70
2024-03-12T22:37:57.151Z,162.60
2024-03-12T22:43:04.590Z,149.00
2024-03-12T22:48:29.806Z,149.50
2024-03-12T22:53:46.790Z,147.10
2024-03-12T22:59:14.768Z,151.30
2024-03-12T23:04:55.689Z,169.80
2024-03-12T23:11:03.956Z,151.10
2024-03-12T23:17:29.485Z,133.20
2024-03-12T23:23:12.117Z,130.10
2024-03-12T23:28:45.328Z,131.80
2024-03-12T23:34:36.188Z,125.10
2024-03-12T23:40:37.756Z,116.10
2024-03-12T23:46:54.951Z,116.10
2024-03-12T23:52:22.212Z,106.60
2024-03-12T23:57:41.422Z,122.00
